Time;durP1;ratioP1;P1;durP2;ratioP2;P2;SDS_P1;SDS_P2;PMS_P1;PMS_P2;Temp;Humidity;BMP_temperature;BMP_pressure;BME280_temperature;BME280_humidity;BME280_pressure;Samples;Min_cycle;Max_cycle;Signal;HPM_P1;HPM_P2
2022/01/05 16:29:45;;;;;;;6.05;2.38;;;;;;;;;;4939690;27;100593;-70
2022/01/05 16:32:13;;;;;;;15.63;5.03;;;;;;;;;;4992561;28;101886;-69
2022/01/05 16:34:47;;;;;;;15.45;4.78;;;;;;;;;;4966584;28;100339;-69
2022/01/05 16:37:15;;;;;;;11.27;5.38;;;;;;;;;;4988020;28;100840;-69
2022/01/05 16:39:43;;;;;;;11.32;4.88;;;;;;;;;;5001949;28;100363;-71
2022/01/05 16:42:10;;;;;;;14.93;5.20;;;;;;;;;;4996817;28;100031;-68
2022/01/05 16:44:37;;;;;;;12.40;5.20;;;;;;;;;;4990089;28;100255;-69
2022/01/05 16:47:05;;;;;;;12.43;5.40;;;;;;;;;;4987930;28;102713;-68
2022/01/05 16:49:32;;;;;;;12.63;4.85;;;;;;;;;;4969366;28;100332;-66
2022/01/05 16:52:00;;;;;;;12.43;4.95;;;;;;;;;;4989450;28;100065;-66
2022/01/05 16:54:29;;;;;;;14.20;5.00;;;;;;;;;;4960190;27;100427;-69
2022/01/05 17:02:09;;;;;;;11.15;5.07;;;;;;;;;;4988999;28;100363;-67
2022/01/05 17:04:36;;;;;;;12.93;5.40;;;;;;;;;;4987757;28;101261;-67
2022/01/05 17:07:09;;;;;;;10.50;4.45;;;;;;;;;;4988818;28;100898;-67
2022/01/05 17:09:38;;;;;;;13.48;4.65;;;;;;;;;;4983845;28;100193;-69
2022/01/05 17:12:09;;;;;;;17.52;5.68;;;;;;;;;;4988323;28;100141;-68
2022/01/05 17:14:36;;;;;;;10.23;4.97;;;;;;;;;;4988664;28;100250;-67
2022/01/05 17:17:04;;;;;;;12.40;5.28;;;;;;;;;;4987773;28;100595;-68
2022/01/05 17:19:32;;;;;;;14.27;5.35;;;;;;;;;;4987595;28;100251;-68
2022/01/05 17:22:00;;;;;;;10.43;4.82;;;;;;;;;;4972326;28;100389;-69
2022/01/05 17:24:27;;;;;;;12.15;5.57;;;;;;;;;;4970610;28;100614;-68
2022/01/05 17:26:54;;;;;;;11.07;5.38;;;;;;;;;;4988027;28;103268;-67
2022/01/05 17:29:21;;;;;;;13.68;5.03;;;;;;;;;;4987291;28;100889;-68
2022/01/05 17:31:48;;;;;;;9.23;5.30;;;;;;;;;;4972428;28;100206;-67
2022/01/05 17:34:15;;;;;;;15.30;5.82;;;;;;;;;;4988327;28;101414;-70
2022/01/05 17:36:42;;;;;;;9.85;5.07;;;;;;;;;;4987938;28;100157;-67
2022/01/05 17:39:15;;;;;;;11.88;5.15;;;;;;;;;;4986003;28;100037;-69
2022/01/05 17:41:42;;;;;;;8.40;4.82;;;;;;;;;;4975063;28;100207;-71
2022/01/05 17:44:09;;;;;;;10.38;5.03;;;;;;;;;;4974112;28;101453;-69
2022/01/05 17:46:36;;;;;;;12.55;5.20;;;;;;;;;;4974421;28;100699;-69
2022/01/05 17:49:03;;;;;;;11.25;5.63;;;;;;;;;;4974056;28;100438;-68
2022/01/05 17:51:30;;;;;;;12.32;5.88;;;;;;;;;;4974861;28;100062;-68
2022/01/05 17:53:57;;;;;;;11.15;5.43;;;;;;;;;;4973086;28;100616;-68
2022/01/05 17:56:26;;;;;;;11.10;4.88;;;;;;;;;;4949925;27;102147;-68
2022/01/05 17:58:53;;;;;;;8.48;4.88;;;;;;;;;;4981049;28;101627;-70
2022/01/05 18:01:19;;;;;;;12.93;5.25;;;;;;;;;;4975688;28;100242;-72
2022/01/05 18:03:46;;;;;;;9.57;4.88;;;;;;;;;;4973403;28;100238;-68
2022/01/05 18:06:13;;;;;;;9.57;5.22;;;;;;;;;;4973967;28;100599;-71
2022/01/05 18:08:40;;;;;;;14.40;5.68;;;;;;;;;;4974345;28;100125;-73
2022/01/05 18:11:07;;;;;;;9.85;5.13;;;;;;;;;;4974869;28;100162;-73
2022/01/05 18:13:34;;;;;;;11.10;5.38;;;;;;;;;;4974317;28;101569;-73
2022/01/05 18:16:03;;;;;;;8.57;5.40;;;;;;;;;;4990097;28;100976;-72
2022/01/05 18:18:39;;;;;;;9.70;4.93;;;;;;;;;;4975771;28;100120;-69
2022/01/05 18:21:10;;;;;;;11.00;5.43;;;;;;;;;;4974755;28;100610;-70
2022/01/05 18:23:40;;;;;;;8.13;5.25;;;;;;;;;;4975763;28;102663;-72
2022/01/05 18:26:08;;;;;;;11.95;5.43;;;;;;;;;;4975725;28;100655;-70
2022/01/05 18:28:35;;;;;;;10.27;5.05;;;;;;;;;;4974040;28;104366;-69
2022/01/05 18:31:02;;;;;;;9.25;5.00;;;;;;;;;;4975506;28;100617;-69
2022/01/05 18:33:48;;;;;;;9.60;4.75;;;;;;;;;;4974963;28;104125;-70
2022/01/05 18:36:15;;;;;;;12.57;5.00;;;;;;;;;;4974748;28;100843;-68
2022/01/05 18:38:42;;;;;;;10.27;4.65;;;;;;;;;;4957785;28;100242;-68
2022/01/05 18:41:09;;;;;;;8.55;4.88;;;;;;;;;;4976239;28;100092;-68
2022/01/05 18:43:38;;;;;;;12.00;5.28;;;;;;;;;;4972186;28;103231;-68
2022/01/05 18:46:05;;;;;;;12.13;5.43;;;;;;;;;;4973078;28;101212;-68
2022/01/05 18:48:32;;;;;;;12.35;5.63;;;;;;;;;;4975374;28;100046;-69
2022/01/05 18:50:59;;;;;;;11.30;4.97;;;;;;;;;;4990312;28;100018;-68
2022/01/05 18:53:26;;;;;;;11.73;5.00;;;;;;;;;;4988533;28;100210;-68
2022/01/05 18:55:53;;;;;;;13.15;5.00;;;;;;;;;;4974662;28;100556;-74
2022/01/05 18:58:20;;;;;;;10.10;5.43;;;;;;;;;;4990528;28;100205;-71
2022/01/05 19:00:47;;;;;;;14.35;5.90;;;;;;;;;;4974693;28;100332;-70
2022/01/05 19:03:15;;;;;;;12.02;5.57;;;;;;;;;;4974562;28;100187;-75
2022/01/05 19:05:42;;;;;;;14.38;5.60;;;;;;;;;;4972861;28;100708;-73
2022/01/05 19:08:11;;;;;;;10.13;5.28;;;;;;;;;;4974859;28;100108;-74
2022/01/05 19:10:38;;;;;;;10.57;5.50;;;;;;;;;;4975213;28;99994;-74
2022/01/05 19:13:17;;;;;;;14.48;5.00;;;;;;;;;;4973369;28;100269;-74
2022/01/05 19:15:44;;;;;;;14.45;5.00;;;;;;;;;;4989312;28;100642;-75
2022/01/05 19:18:11;;;;;;;15.30;5.40;;;;;;;;;;4974946;28;100208;-74
2022/01/05 19:20:39;;;;;;;11.00;5.30;;;;;;;;;;4957427;28;100538;-73
2022/01/05 19:23:05;;;;;;;13.73;4.85;;;;;;;;;;4972787;28;100297;-74
2022/01/05 19:25:33;;;;;;;9.90;5.22;;;;;;;;;;4973070;28;100656;-69
